Date,TemperatureHighF,TemperatureAvgF,TemperatureLowF,DewpointHighF,DewpointAvgF,DewpointLowF,HumidityHigh,HumidityAvg,HumidityLow,PressureMaxIn,PressureMinIn,WindSpeedMaxMPH,WindSpeedAvgMPH,GustSpeedMaxMPH,PrecipitationSumIn
2013-1-1,43.5,33.7,27.5,34.0,30.3,26.6,97,88,66,30.46,30.32,7,1,7,0.01
2013-1-2,47.5,34.3,27.1,37.0,28.2,23.7,94,80,49,30.32,30.15,7,2,7,0.00
2013-1-3,46.9,34.9,25.3,35.4,27.1,22.6,94,76,44,30.16,30.05,11,2,11,0.19
2013-1-4,50.7,43.3,36.9,47.5,41.1,34.5,98,92,82,30.27,30.13,12,3,12,0.04
2013-1-5,46.2,42.6,39.9,41.0,38.2,35.1,94,85,75,30.17,30.07,8,2,8,0.08
2013-1-6,46.4,42.5,39.2,42.3,40.2,37.9,96,92,83,30.15,29.94,20,4,20,0.05
2013-1-7,51.6,47.1,41.2,48.0,44.3,39.6,96,90,82,30.12,29.75,22,7,22,0.06
2013-1-8,53.8,47.2,42.4,52.5,44.8,39.9,98,91,82,30.12,29.69,33,8,33,0.58
2013-1-9,50.7,40.8,35.2,48.9,39.7,34.0,98,96,90,29.91,29.63,21,5,24,0.81
2013-1-10,39.6,35.4,28.4,38.3,33.9,27.3,96,94,91,30.08,29.90,7,1,7,0.06
2013-1-11,34.9,28.7,25.2,31.6,27.1,23.7,97,93,80,30.29,30.06,7,0,7,0.00
2013-1-12,37.9,28.4,24.4,30.9,25.6,23.2,97,90,61,30.41,30.27,7,1,7,0.01
2013-1-13,38.3,30.0,23.4,31.5,26.5,22.1,96,87,61,30.46,30.40,4,1,4,0.00
2013-1-14,38.5,35.1,32.9,31.8,30.0,28.6,88,82,72,30.54,30.43,8,2,8,0.00
2013-1-15,44.6,35.6,28.4,36.1,30.8,26.2,94,83,61,30.66,30.53,6,1,6,0.00
2013-1-16,52.9,33.4,27.3,37.4,30.5,25.9,98,89,71,30.64,29.77,4,1,4,0.00
2013-1-17,39.7,33.5,27.9,37.2,32.2,26.8,98,95,88,30.49,30.26,5,1,5,0.01
2013-1-18,38.7,34.5,32.2,38.3,33.8,31.5,99,97,93,30.32,30.22,4,2,4,0.00
2013-1-19,38.7,33.8,30.7,35.4,32.8,30.2,99,96,91,30.35,30.30,5,2,5,0.00
2013-1-20,42.3,34.6,31.6,37.9,33.1,30.2,99,94,82,30.36,30.23,6,2,6,0.00
2013-1-21,38.1,33.5,30.4,36.9,32.8,30.2,99,97,92,30.24,30.10,8,2,8,0.00
2013-1-22,41.0,35.3,31.1,37.4,33.7,30.6,99,94,83,30.10,29.86,5,1,5,0.00
2013-1-23,43.5,40.8,37.9,41.7,38.1,33.6,97,90,78,30.10,29.80,11,2,11,0.25
2013-1-24,48.6,43.1,40.3,41.4,39.5,36.1,96,88,68,30.17,30.01,10,3,10,0.13
2013-1-25,52.7,45.4,39.7,47.8,43.1,37.6,99,92,75,30.02,29.88,8,2,8,0.08
2013-1-26,45.3,42.4,39.7,42.3,40.0,37.8,97,91,86,29.99,29.84,14,4,14,0.22
2013-1-27,43.9,41.4,39.9,39.7,38.5,37.0,95,89,83,30.02,29.95,19,4,19,0.07
2013-1-28,42.4,41.0,38.5,41.7,40.0,37.4,98,96,94,30.05,29.96,9,3,9,0.26
2013-1-29,49.3,44.7,41.7,47.3,44.3,41.2,99,98,97,30.30,30.04,15,3,15,0.32
2013-1-30,51.3,46.8,44.2,48.9,46.6,43.7,99,99,98,30.35,30.29,8,3,8,0.12
2013-1-31,52.2,47.6,45.7,48.7,46.3,45.1,99,95,83,30.37,30.26,17,4,17,0.09
2013-2-1,52.9,45.9,39.6,46.6,43.8,38.5,99,93,73,30.38,30.29,6,1,6,0.01
2013-2-2,44.8,41.5,39.0,41.7,40.0,37.9,99,94,86,30.35,30.22,9,2,9,0.00
2013-2-3,49.6,44.5,39.4,45.0,42.2,38.1,98,92,81,30.27,30.17,9,3,9,0.05
2013-2-4,54.5,47.2,44.1,45.1,42.7,41.4,95,85,65,30.17,29.85,11,3,11,0.00
2013-2-5,53.4,46.5,43.7,46.9,42.5,40.6,95,86,67,29.90,29.80,21,6,21,0.13
2013-2-6,53.2,45.8,43.3,42.4,41.2,39.7,92,84,61,30.01,29.75,18,5,18,0.08
2013-2-7,52.3,44.2,34.9,41.5,36.9,32.5,92,77,53,30.16,29.75,22,5,22,0.07
2013-2-8,48.6,40.2,33.1,39.7,35.9,31.6,98,85,68,30.27,30.15,4,1,4,0.00
2013-2-9,47.8,42.8,40.5,41.0,39.2,37.0,94,87,74,30.30,30.22,4,1,4,0.01
2013-2-10,49.1,41.5,35.4,42.6,37.6,34.3,98,87,62,30.35,30.28,6,1,6,0.00
2013-2-11,49.6,44.2,40.8,43.5,40.2,38.7,95,86,72,30.33,30.15,10,2,10,0.04
2013-2-12,50.5,47.3,44.4,47.3,44.6,41.0,97,90,82,30.37,30.25,19,4,19,0.02
2013-2-13,49.3,46.1,44.1,45.3,42.7,41.4,93,88,79,30.46,30.27,10,2,15,0.04
2013-2-14,50.5,46.1,43.0,45.3,43.2,40.1,94,90,80,30.52,30.46,9,2,9,0.05
2013-2-15,58.5,46.2,38.7,47.3,42.0,37.0,98,86,60,30.52,30.14,8,1,8,0.00
2013-2-16,58.6,45.2,37.8,44.8,41.6,36.5,98,88,52,30.17,30.06,16,4,16,0.14
2013-2-17,48.7,42.6,40.6,41.9,38.0,36.1,95,84,67,30.21,30.07,11,3,11,0.02
2013-2-18,48.9,42.9,38.5,40.5,37.5,36.1,92,82,63,30.07,29.72,14,2,14,0.00
2013-2-19,51.8,42.5,34.5,37.9,35.4,30.0,93,77,49,30.18,29.69,11,2,11,0.00
2013-2-20,48.9,40.3,33.8,40.6,37.0,32.0,96,88,71,30.01,29.95,14,2,14,0.11
2013-2-21,45.9,42.7,38.8,40.8,39.2,37.0,97,88,77,30.03,29.59,23,6,23,0.02
2013-2-22,48.4,42.9,38.7,42.6,38.6,33.1,92,85,70,30.01,29.62,29,10,29,0.12
2013-2-23,52.7,44.1,39.6,40.3,36.6,33.4,87,75,51,30.34,29.86,13,4,13,0.00
2013-2-24,50.0,45.1,41.0,37.6,36.2,34.9,83,71,61,30.35,29.91,22,7,22,0.00
2013-2-25,56.1,44.9,39.0,39.7,35.7,27.1,91,72,37,30.28,29.73,24,7,24,0.07
2013-2-26,50.7,43.8,35.4,38.1,34.4,32.0,90,71,50,30.32,30.16,17,5,17,0.00
2013-2-27,52.9,44.9,39.6,43.2,40.8,36.7,96,86,63,30.27,30.17,11,2,11,0.20
2013-2-28,53.4,47.1,42.3,51.1,46.0,41.2,98,96,94,30.29,30.15,17,4,17,0.13
2013-3-1,58.8,53.9,51.1,51.8,50.1,48.0,98,87,74,30.33,30.25,20,7,20,0.08
2013-3-2,61.2,50.3,38.3,49.6,45.0,36.3,94,83,61,30.25,30.03,27,6,27,0.20
2013-3-3,52.2,41.4,34.0,42.3,34.9,30.2,97,80,44,30.27,30.16,8,2,8,0.01
2013-3-4,56.7,42.6,29.3,33.8,28.6,23.5,95,63,29,30.32,29.88,11,2,11,0.00
2013-3-5,53.6,45.6,40.5,39.7,33.9,24.1,86,64,41,29.89,29.68,7,2,7,0.00
2013-3-6,44.6,42.6,40.8,41.7,39.6,37.4,97,89,77,29.86,29.54,9,3,9,0.50
2013-3-7,53.8,44.5,38.3,46.6,41.6,37.0,99,90,63,30.06,29.86,10,2,10,0.12
2013-3-8,56.5,42.3,34.0,44.2,37.5,32.9,99,84,56,30.21,30.04,12,2,12,0.01
2013-3-9,57.9,43.1,31.6,42.8,36.5,30.2,98,80,48,30.46,30.21,9,1,9,0.00
2013-3-10,52.0,43.8,36.1,42.3,39.3,34.0,94,85,65,30.47,30.39,8,1,8,0.01
2013-3-11,56.3,47.6,41.2,46.2,42.6,39.9,97,84,59,30.41,30.12,8,2,8,0.01
2013-3-12,56.8,52.4,47.8,50.7,48.5,39.6,94,87,69,30.12,29.10,26,9,26,0.05
2013-3-13,55.8,51.7,50.4,53.4,49.3,47.7,97,91,85,30.17,30.05,22,6,22,0.14
2013-3-14,55.2,50.7,48.0,49.6,47.5,43.9,97,89,69,30.12,29.99,16,4,16,0.02
2013-3-15,63.5,53.3,48.2,51.4,48.2,44.8,96,84,60,30.18,30.09,15,5,15,0.00
2013-3-16,54.7,47.6,38.7,45.7,41.4,34.2,87,79,59,30.10,29.85,22,6,22,0.02
2013-3-17,55.2,43.1,37.8,37.8,35.5,32.2,91,76,46,30.16,29.94,17,4,17,0.04
2013-3-18,57.7,45.3,37.4,43.2,36.4,31.8,88,72,44,30.21,30.06,21,5,21,0.01
2013-3-19,61.2,44.3,35.4,41.5,35.6,29.3,94,75,33,30.20,29.55,19,3,19,0.24
2013-3-20,54.3,47.2,39.4,49.5,41.3,33.3,97,81,60,29.98,29.34,34,8,34,0.39
2013-3-21,54.0,41.1,36.7,38.3,34.8,32.5,92,79,49,30.18,29.98,12,4,12,0.05
2013-3-22,50.9,39.4,32.0,38.3,31.8,24.8,94,76,42,30.35,30.18,9,3,9,0.04
2013-3-23,54.5,41.2,31.3,35.6,29.4,21.4,92,67,30,30.37,30.27,10,2,10,0.00
2013-3-24,58.8,43.3,30.4,36.0,30.3,22.3,92,64,26,30.27,30.09,6,2,6,0.00
2013-3-25,64.8,49.9,33.6,34.3,28.6,22.1,79,48,22,30.26,29.88,10,2,10,0.00
2013-3-26,64.8,52.9,45.5,41.4,37.1,33.3,72,56,33,29.99,29.91,8,2,8,0.00
2013-3-27,64.0,50.8,43.7,48.0,41.9,36.0,93,72,46,29.96,29.90,6,1,6,0.01
2013-3-28,68.4,53.6,43.3,51.4,45.5,25.5,97,77,40,30.26,29.95,10,2,10,0.02
2013-3-29,69.3,54.4,43.3,48.7,44.2,40.1,94,71,38,30.22,30.12,9,2,9,0.00
2013-3-30,68.5,53.6,40.8,46.9,43.4,39.2,96,71,39,30.23,30.04,15,2,15,0.00
2013-3-31,74.7,56.6,41.2,45.5,42.6,36.1,93,64,29,30.14,29.86,8,2,8,0.00
2013-4-1,68.4,54.6,47.1,49.6,46.3,39.4,90,75,47,30.13,29.93,13,4,13,0.00
2013-4-2,61.2,54.2,50.0,48.0,46.1,44.1,84,74,61,30.17,29.84,11,4,11,0.00
2013-4-3,68.4,55.7,44.6,49.3,45.0,42.1,93,70,42,30.16,29.91,8,2,8,0.00
2013-4-4,58.8,53.5,50.0,53.8,49.5,44.4,95,86,76,29.92,29.60,21,3,21,0.33
2013-4-5,62.8,53.9,48.7,51.4,49.1,46.2,96,85,62,29.83,29.68,21,7,21,0.32
2013-4-6,57.2,48.9,45.3,48.9,45.1,42.4,96,87,64,29.89,29.66,21,7,21,0.39
2013-4-7,48.2,44.1,39.7,45.3,42.4,38.3,97,94,89,29.86,29.46,11,2,11,0.80
2013-4-8,62.2,49.1,42.4,49.3,44.1,41.2,97,84,58,30.24,29.86,9,3,9,0.04
2013-4-9,59.2,50.5,41.9,46.4,42.5,38.7,94,75,51,30.32,30.14,11,4,11,0.00
2013-4-10,64.6,52.8,48.7,52.9,46.1,42.4,93,78,58,30.23,29.90,20,6,20,0.19
2013-4-11,59.4,49.3,44.6,45.7,39.7,33.8,92,71,42,30.27,30.16,15,3,15,0.07
2013-4-12,50.0,44.4,40.3,44.2,39.5,35.4,95,83,64,30.16,29.63,20,5,20,0.13
2013-4-13,53.4,43.3,37.2,45.1,39.3,35.4,96,86,64,29.97,29.73,17,4,17,0.31
2013-4-14,59.5,46.9,37.9,46.2,37.8,29.7,98,74,36,29.98,29.87,11,2,11,0.01
2013-4-15,59.7,47.3,38.7,43.2,38.4,32.7,94,74,38,30.16,29.91,16,2,16,0.00
2013-4-16,59.9,46.7,36.3,44.1,37.9,32.0,97,74,43,30.37,30.15,11,2,11,0.01
2013-4-17,65.1,49.9,36.3,42.8,37.8,30.2,95,67,30,30.43,30.35,11,3,11,0.00
2013-4-18,53.6,48.5,44.6,48.2,43.0,37.6,94,81,68,30.43,30.17,21,5,21,0.11
2013-4-19,56.3,51.7,48.4,53.6,49.7,47.5,97,93,84,30.17,30.03,17,4,21,0.50
2013-4-20,58.8,50.2,46.6,50.0,47.0,45.3,97,89,68,30.25,30.16,11,3,11,0.24
2013-4-21,59.2,48.0,40.5,47.7,42.4,36.3,97,82,51,30.34,30.19,13,2,13,0.06
2013-4-22,63.1,49.5,35.6,43.3,34.1,18.3,96,62,19,30.49,30.34,11,2,11,0.06
2013-4-23,67.3,51.2,34.7,44.6,33.4,16.3,90,57,16,30.40,30.20,11,2,11,0.00
2013-4-24,74.3,56.3,39.4,45.0,34.9,13.5,91,53,12,30.30,30.02,10,2,10,0.00
2013-4-25,81.7,60.3,42.8,44.8,38.2,30.6,80,49,17,30.10,30.00,8,2,8,0.00
2013-4-26,70.7,58.3,45.9,49.6,46.5,42.3,92,67,43,30.22,30.10,11,2,11,0.00
2013-4-27,57.9,54.6,52.3,47.7,44.7,40.3,82,70,58,30.19,30.11,17,5,17,0.00
2013-4-28,64.6,52.7,47.1,51.3,45.0,39.4,93,77,48,30.19,29.91,20,5,20,0.05
2013-4-29,60.8,50.3,43.5,47.1,39.7,30.4,93,69,34,30.14,29.88,15,3,16,0.09
2013-4-30,63.0,47.0,36.0,41.4,34.9,27.3,92,66,29,30.42,30.13,11,2,11,0.12
2013-5-1,69.3,51.4,34.3,42.8,32.7,21.2,93,56,18,30.55,30.41,8,2,8,0.00
2013-5-2,71.1,56.1,41.4,42.1,38.9,36.3,84,56,29,30.52,30.32,13,2,13,0.00
2013-5-3,74.1,58.1,42.8,48.9,44.1,39.4,89,62,32,30.36,30.18,10,2,10,0.00
2013-5-4,79.9,64.7,49.6,49.5,42.9,25.5,83,50,15,30.20,29.96,14,2,14,0.00
2013-5-5,86.4,68.3,50.0,50.5,42.8,27.7,77,46,14,29.96,29.72,11,2,11,0.00
2013-5-6,90.0,71.0,51.6,50.5,44.1,28.2,78,44,12,29.82,29.70,9,1,9,0.00
2013-5-7,79.3,63.1,54.5,53.6,50.5,46.9,82,65,37,29.97,29.78,15,3,15,0.00
2013-5-8,75.9,59.8,53.2,52.0,50.0,47.1,87,71,38,30.12,29.96,12,3,12,0.00
2013-5-9,74.8,60.1,48.9,55.6,50.6,46.0,95,73,39,30.20,30.07,8,1,8,0.00
2013-5-10,87.8,66.8,48.7,56.3,50.6,45.9,93,60,26,30.18,30.06,8,1,8,0.00
2013-5-11,91.4,69.5,56.3,53.4,49.1,44.2,78,51,23,30.14,29.94,10,2,10,0.00
2013-5-12,78.3,66.0,59.9,58.8,55.7,50.4,89,71,45,30.06,29.97,14,4,14,0.06
2013-5-13,68.0,59.3,50.5,59.4,50.9,40.3,89,74,55,30.16,29.89,31,6,31,0.13
2013-5-14,74.5,58.2,49.1,46.4,42.4,32.5,80,59,23,30.20,30.07,11,3,11,0.00
2013-5-15,73.8,57.3,46.6,51.3,46.4,39.9,88,70,34,30.10,29.99,11,2,11,0.01
2013-5-16,77.7,62.4,54.1,56.5,50.9,43.0,91,69,30,29.99,29.82,8,2,8,0.01
2013-5-17,69.1,60.9,55.0,52.7,48.8,44.6,82,66,44,30.03,29.91,15,5,15,0.00
2013-5-18,69.3,59.0,52.3,49.1,46.8,43.7,81,65,45,30.24,30.03,11,2,11,0.00
2013-5-19,68.0,58.6,51.4,51.1,48.0,45.3,82,69,47,30.37,30.24,8,2,8,0.00
2013-5-20,77.0,58.6,45.5,51.8,47.4,43.0,93,69,34,30.33,29.87,8,2,8,0.00
2013-5-21,62.1,52.2,46.9,50.2,46.4,44.2,94,81,57,29.88,29.74,15,3,15,0.34
2013-5-22,59.9,50.9,46.6,50.0,45.4,43.5,91,82,65,29.91,29.81,11,3,11,0.06
2013-5-23,63.7,52.6,45.9,50.2,44.9,41.5,93,76,49,29.99,29.89,15,2,15,0.05
2013-5-24,72.3,57.6,45.9,51.6,46.3,39.7,95,69,34,30.02,29.94,11,3,11,0.02
2013-5-25,73.9,59.5,52.3,49.3,46.7,41.9,84,65,34,30.01,29.93,11,3,11,0.00
2013-5-26,71.2,58.7,51.1,56.1,50.9,47.5,92,77,51,29.96,29.91,11,2,11,0.06
2013-5-27,63.3,57.3,51.4,56.8,53.0,48.9,93,86,74,29.94,29.68,11,2,11,0.19
2013-5-28,73.2,58.7,52.7,52.5,49.7,46.2,91,73,44,29.85,29.73,17,4,17,0.00
2013-5-29,68.5,55.6,50.2,52.3,49.1,47.3,93,80,50,29.94,29.65,13,2,13,0.08
2013-5-30,67.5,57.8,50.0,49.1,46.8,44.6,85,68,47,30.22,29.93,16,6,16,0.00
2013-5-31,74.1,60.5,51.8,52.5,45.7,38.7,84,61,32,30.32,30.21,9,2,9,0.00
2013-6-1,81.5,63.7,51.3,52.5,46.4,35.8,80,57,23,30.22,30.01,9,2,9,0.00
2013-6-2,77.4,62.7,52.9,53.1,49.3,41.5,91,64,32,30.06,30.00,12,2,12,0.04
2013-6-3,81.5,63.9,52.3,54.1,50.9,48.0,89,65,33,30.10,30.01,11,2,11,0.00
2013-6-4,84.9,67.5,51.1,56.5,50.0,44.4,89,57,26,30.10,29.97,8,2,8,0.00
2013-6-5,82.0,67.7,54.1,57.0,51.5,46.2,76,58,34,30.06,29.99,10,2,10,0.00
2013-6-6,84.9,69.0,53.2,56.3,48.8,37.2,87,53,22,30.03,29.96,9,2,9,0.00
2013-6-7,73.4,64.2,57.0,55.2,48.6,42.3,73,58,37,30.12,29.99,15,3,15,0.00
2013-6-8,75.6,62.2,54.3,51.8,48.3,46.2,75,62,40,30.17,30.06,8,2,8,0.00
2013-6-9,75.6,60.0,52.7,50.9,47.1,43.5,81,63,35,30.09,29.98,10,2,10,0.00
2013-6-10,77.4,61.5,49.1,50.4,46.1,37.4,83,59,24,30.01,29.83,12,2,12,0.00
2013-6-11,79.0,60.1,54.3,54.1,46.7,43.2,84,63,31,30.07,29.91,17,5,17,0.09
2013-6-12,77.4,62.5,53.4,50.9,46.8,41.0,78,58,30,30.12,30.06,16,4,16,0.00
2013-6-13,77.0,62.2,53.6,52.0,47.8,41.4,81,62,29,30.19,30.11,9,2,9,0.00
2013-6-14,78.3,62.3,56.1,50.4,47.9,42.4,75,60,30,30.21,30.02,14,4,14,0.00
2013-6-15,79.3,64.7,49.1,54.3,50.4,45.3,92,63,31,30.03,29.87,9,1,9,0.00
2013-6-16,86.2,67.6,54.3,56.8,53.3,49.8,86,62,33,30.05,29.95,11,2,11,0.00
2013-6-17,88.5,70.7,58.6,55.2,50.6,39.7,79,53,19,30.06,29.84,15,3,15,0.01
2013-6-18,86.9,67.5,55.9,55.2,48.4,30.7,87,55,17,29.95,29.83,18,3,18,0.00
2013-6-19,73.4,62.7,56.1,53.8,50.8,46.8,79,66,43,29.98,29.88,11,3,11,0.00
2013-6-20,64.6,57.6,53.4,56.5,52.6,48.6,96,84,66,30.09,29.92,13,3,13,0.78
2013-6-21,76.5,62.0,53.4,60.1,53.2,44.6,97,76,37,30.14,30.07,8,1,8,0.04
2013-6-22,87.8,69.0,52.3,59.4,51.8,44.4,94,59,26,30.09,29.81,8,2,8,0.00
2013-6-23,76.5,67.5,60.3,62.1,58.2,53.1,92,73,58,29.81,29.55,5,1,5,0.12
2013-6-24,79.7,65.0,57.9,61.2,56.4,43.5,94,76,43,29.87,29.54,17,4,17,0.07
2013-6-25,86.7,65.6,57.6,62.2,56.7,50.4,94,76,30,29.83,29.64,18,2,19,0.25
2013-6-26,80.8,66.2,57.9,62.2,58.1,55.2,96,77,48,30.04,29.81,11,2,11,0.04
2013-6-27,76.3,67.2,61.2,64.6,61.0,55.8,95,81,63,30.16,30.01,8,1,8,0.07
2013-6-28,97.5,76.2,61.5,66.7,61.7,55.4,93,65,27,30.16,29.99,10,2,10,0.00
2013-6-29,95.4,77.5,66.6,64.9,61.0,57.4,83,60,31,30.07,29.94,8,2,8,0.00
2013-6-30,99.7,79.2,61.2,65.7,60.3,54.9,81,56,24,29.98,29.79,8,1,8,0.00
2013-7-1,96.4,78.5,65.1,63.9,60.1,57.4,79,55,30,29.98,29.86,8,2,8,0.00
2013-7-2,86.0,73.3,62.8,61.5,55.2,46.0,82,55,26,30.07,29.98,12,2,12,0.00
2013-7-3,82.9,69.6,60.3,56.3,50.1,42.6,67,51,31,30.23,30.00,11,3,11,0.00
2013-7-4,83.3,66.1,58.3,55.8,52.3,48.7,77,63,32,30.10,29.99,10,2,10,0.00
2013-7-5,83.5,67.7,54.7,58.3,54.2,36.0,88,64,35,30.18,29.90,10,2,10,0.00
2013-7-6,83.8,69.1,55.4,58.6,54.0,46.4,92,62,28,29.95,29.81,8,1,8,0.00
2013-7-7,85.5,69.2,58.3,59.7,56.8,52.3,86,66,38,29.92,29.83,11,2,11,0.00
2013-7-8,90.0,69.5,58.1,58.6,55.1,52.3,83,62,29,30.06,29.90,11,3,11,0.00
2013-7-9,88.5,72.5,58.6,59.7,54.6,49.3,88,57,27,30.08,29.95,8,2,8,0.00
2013-7-10,84.7,67.1,57.4,58.1,53.6,48.7,82,63,34,30.04,29.91,11,2,11,0.00
2013-7-11,76.8,63.0,57.4,52.3,48.9,39.7,72,61,35,30.41,29.96,9,2,10,0.00
2013-7-12,72.5,61.8,53.4,53.4,49.7,46.6,79,65,49,30.08,29.99,8,1,8,0.00
2013-7-13,80.6,65.2,50.0,54.1,48.2,41.2,87,58,26,30.18,30.06,8,2,8,0.00
2013-7-14,88.7,69.2,51.4,53.6,47.3,34.9,86,51,15,30.23,29.94,10,2,10,0.00
2013-7-15,83.7,69.1,54.3,55.9,49.7,43.3,84,53,28,30.21,29.85,9,2,9,0.00
2013-7-16,89.2,74.1,57.6,54.3,50.2,44.8,71,45,22,29.87,29.75,11,1,11,0.00
2013-7-17,75.2,68.2,61.5,59.5,56.3,52.3,86,67,50,30.15,29.83,15,4,15,0.05
2013-7-18,87.8,69.0,58.5,58.8,55.7,53.6,85,65,33,30.20,30.07,10,2,10,0.00
2013-7-19,86.4,68.6,55.0,61.0,56.6,52.3,92,68,36,30.15,29.99,8,1,8,0.00
2013-7-20,85.8,66.7,55.8,59.2,56.5,52.7,91,72,37,30.07,29.91,8,1,8,0.00
2013-7-21,84.9,66.9,56.7,59.7,57.0,53.4,90,72,39,29.96,29.86,9,2,9,0.00
2013-7-22,89.4,68.8,59.2,59.9,56.7,54.3,87,68,32,30.04,29.90,8,2,8,0.00
2013-7-23,89.8,72.5,56.8,60.6,54.5,46.2,91,58,24,30.04,29.91,8,1,8,0.00
2013-7-24,88.5,73.1,57.9,60.3,51.9,32.5,81,51,21,30.18,29.94,8,1,8,0.00
2013-7-25,90.9,72.4,56.1,55.4,50.3,37.9,77,50,16,30.07,29.99,9,2,9,0.00
2013-7-26,90.3,71.6,56.1,57.2,49.2,35.2,82,50,19,30.12,30.02,10,2,10,0.00
2013-7-27,87.1,68.1,54.0,56.3,50.7,43.3,85,56,24,30.14,29.95,9,2,9,0.00
2013-7-28,78.4,64.2,55.2,55.0,52.8,50.5,86,68,42,30.01,29.91,12,4,12,0.00
2013-7-29,82.9,67.2,57.0,55.8,53.6,51.3,82,64,35,29.99,29.90,9,2,10,0.00
2013-7-30,85.6,68.5,58.5,57.4,55.4,37.4,84,65,34,30.11,29.70,9,2,9,0.00
2013-7-31,77.4,65.2,57.2,61.2,57.4,53.4,90,77,53,30.10,29.95,9,1,9,0.00
2013-8-1,73.9,64.9,58.6,58.1,55.3,53.4,84,72,54,30.04,29.99,14,4,14,0.00
2013-8-2,63.5,61.6,59.9,59.7,57.2,54.3,95,86,76,30.10,30.02,11,3,11,0.09
2013-8-3,77.0,66.4,60.3,61.7,58.8,55.6,96,78,55,30.10,30.01,7,1,8,0.01
2013-8-4,84.6,70.1,55.4,61.3,57.6,53.2,93,67,40,30.03,29.89,10,2,10,0.00
2013-8-5,90.7,73.6,58.3,61.3,56.7,49.8,91,59,27,30.04,29.87,8,1,8,0.00
2013-8-6,92.3,73.1,56.1,59.9,53.4,41.0,83,54,18,29.98,29.85,9,1,9,0.00
2013-8-7,92.1,73.2,56.8,61.5,54.9,39.6,87,56,23,30.09,29.88,9,1,9,0.00
2013-8-8,87.3,71.0,59.5,60.1,56.8,54.1,87,63,36,30.01,29.89,9,2,9,0.00
2013-8-9,86.4,71.9,58.6,58.8,55.4,52.3,82,58,37,29.92,29.78,8,1,8,0.00
2013-8-10,84.0,70.5,60.6,63.1,60.6,57.2,92,72,44,29.97,29.84,9,2,9,0.06
2013-8-11,84.0,69.2,60.1,59.5,55.4,51.6,84,63,35,30.04,29.94,11,2,11,0.00
2013-8-12,84.6,69.2,59.5,57.6,55.4,51.8,83,64,34,30.04,29.95,8,1,8,0.00
2013-8-13,89.1,70.8,57.6,60.3,55.0,46.2,89,61,23,30.06,29.88,8,2,8,0.00
2013-8-14,86.9,70.4,58.5,62.6,58.1,54.1,89,68,36,29.92,29.86,11,2,11,0.00
2013-8-15,74.8,68.4,62.2,66.9,63.7,50.0,94,85,72,29.96,29.86,8,1,8,0.04
2013-8-16,89.6,73.4,60.6,67.6,60.4,45.0,97,68,29,29.97,29.89,11,1,11,0.00
2013-8-17,85.3,72.3,62.6,61.0,57.9,46.9,81,61,40,30.04,29.96,15,3,15,0.00
2013-8-18,84.2,69.8,61.5,59.7,56.2,52.2,81,63,41,30.09,30.03,11,2,11,0.00
2013-8-19,83.8,69.7,60.6,58.8,54.9,50.9,77,60,40,30.08,30.01,11,2,11,0.00
2013-8-20,77.7,67.4,59.2,55.9,51.7,48.2,77,58,41,30.13,30.02,12,2,12,0.00
2013-8-21,80.6,67.4,52.0,55.4,51.8,48.0,88,60,37,30.06,29.89,11,1,11,0.00
2013-8-22,90.9,73.1,56.7,57.6,53.4,49.3,81,53,27,29.91,29.74,8,1,8,0.00
2013-8-23,80.6,70.6,64.9,57.7,56.2,54.0,75,61,44,29.86,29.78,16,5,16,0.00
2013-8-24,83.1,69.5,60.6,58.3,55.0,49.1,78,62,32,29.88,29.80,9,3,9,0.00
2013-8-25,79.2,65.6,54.5,60.3,54.8,51.6,91,70,42,29.92,29.82,8,1,8,0.01
2013-8-26,81.0,68.5,62.4,60.8,58.1,50.0,85,71,37,29.92,29.81,17,2,17,0.02
2013-8-27,84.9,71.6,63.1,62.8,58.4,52.0,86,65,40,30.04,29.74,9,2,9,0.01
2013-8-28,83.7,71.4,61.2,66.9,61.2,56.3,96,73,44,29.85,29.78,8,1,8,0.00
2013-8-29,78.3,69.0,65.1,68.5,64.8,61.0,95,87,64,29.98,29.81,11,2,11,0.01
2013-8-30,82.2,70.4,60.6,64.0,57.8,51.3,89,67,36,30.12,29.97,14,3,14,0.00
2013-8-31,81.9,67.5,54.9,61.3,56.3,52.5,93,70,44,30.05,29.79,8,1,8,0.00
2013-9-1,85.1,70.6,58.5,61.9,58.4,49.6,92,68,42,30.08,29.74,10,2,10,0.00
2013-9-2,85.8,72.5,60.4,62.1,57.6,55.2,88,62,37,29.91,29.81,10,2,10,0.00
2013-9-3,77.0,66.6,61.9,66.0,61.5,57.4,95,84,64,29.99,29.89,4,1,4,0.00
2013-9-4,72.5,65.0,55.8,62.8,60.1,46.4,95,85,67,30.01,29.95,11,1,11,0.00
2013-9-5,68.0,63.1,59.7,63.0,59.8,58.1,99,89,77,30.01,29.88,9,1,9,0.56
2013-9-6,74.5,65.5,61.3,66.2,62.2,59.5,99,90,72,30.07,29.90,10,2,10,1.09
2013-9-7,76.5,66.1,60.1,63.0,60.3,57.0,94,82,60,30.07,29.97,7,1,7,0.00
2013-9-8,81.7,67.6,57.2,64.6,59.7,55.8,98,78,52,30.07,29.97,10,1,10,0.01
2013-9-9,80.4,66.9,58.5,64.2,59.5,51.1,96,79,53,30.04,29.93,8,1,8,0.00
2013-9-10,78.6,67.3,56.7,62.8,59.4,55.0,96,77,56,29.97,29.84,11,2,11,0.00
2013-9-11,92.8,74.8,58.3,66.4,59.0,53.2,93,62,28,29.90,29.81,5,1,5,0.00
2013-9-12,80.4,69.5,60.1,63.3,60.4,57.0,93,74,51,29.96,29.85,8,1,8,0.00
2013-9-13,71.2,65.6,61.2,61.7,60.2,58.1,92,83,71,29.93,29.83,6,1,6,0.00
2013-9-14,72.5,65.5,60.8,62.4,60.2,58.3,92,83,69,29.84,29.69,5,1,5,0.00
2013-9-15,70.2,63.3,59.5,63.1,60.3,57.6,96,90,78,29.79,29.67,11,2,11,0.19
2013-9-16,74.1,63.9,59.4,61.2,58.1,53.8,92,82,61,29.90,29.77,17,4,17,0.00
2013-9-17,65.5,60.3,55.8,55.4,53.4,50.5,91,78,62,29.91,29.83,5,1,5,0.00
2013-9-18,73.2,61.8,55.0,56.1,53.2,49.3,92,75,49,30.04,29.91,11,2,11,0.00
2013-9-19,78.8,62.7,48.9,55.0,50.8,46.9,94,69,39,30.01,29.71,5,1,5,0.00
2013-9-20,79.9,64.3,54.7,58.6,54.1,50.5,93,72,42,29.72,29.54,15,2,15,0.05
2013-9-21,72.9,63.9,57.7,58.8,55.3,52.0,90,74,55,29.69,29.61,11,3,11,0.01
2013-9-22,63.7,60.0,56.8,57.0,53.8,49.8,90,80,63,29.70,29.54,22,7,22,0.18
2013-9-23,65.3,58.4,53.2,55.8,52.5,47.1,90,81,67,29.94,29.70,23,6,23,0.12
2013-9-24,68.4,58.3,51.6,52.3,49.7,45.7,90,75,49,29.93,29.80,13,3,13,0.00
2013-9-25,59.0,52.7,47.3,50.5,48.3,45.3,95,86,65,30.00,29.82,8,1,8,0.07
2013-9-26,63.0,53.1,44.6,52.5,48.1,43.7,99,84,61,30.10,29.99,5,1,5,0.00
2013-9-27,59.2,56.1,51.3,53.2,51.2,48.4,92,84,77,30.09,29.81,16,5,16,0.07
2013-9-28,61.5,57.0,52.7,59.9,54.7,50.7,97,92,84,29.81,29.30,27,6,27,0.94
2013-9-29,57.9,54.7,52.2,52.5,50.7,48.0,94,86,76,29.52,29.13,22,8,22,0.38
2013-9-30,61.0,53.6,49.5,54.3,48.6,44.6,94,83,68,29.89,29.38,21,8,21,0.07
2013-10-1,62.2,53.2,49.1,50.7,47.4,44.6,94,81,57,30.07,29.87,17,6,17,0.07
2013-10-2,57.0,52.0,49.6,51.4,48.4,46.0,95,88,76,30.14,30.01,14,3,14,0.20
2013-10-3,59.0,52.0,44.8,49.1,47.0,42.8,94,84,66,30.43,30.14,6,1,6,0.00
2013-10-4,66.6,52.1,43.0,51.8,46.4,41.5,99,83,51,30.45,30.31,6,1,6,0.00
2013-10-5,72.0,55.6,43.7,53.6,47.7,42.6,98,77,43,30.33,30.09,5,1,5,0.00
2013-10-6,75.9,58.2,44.4,55.2,48.3,43.2,98,73,37,30.09,29.82,14,2,14,0.01
2013-10-7,66.9,56.5,53.1,52.3,49.9,45.1,94,80,53,29.97,29.84,21,6,21,0.05
2013-10-8,58.1,51.4,43.5,52.3,46.4,41.7,93,83,63,30.05,29.93,10,2,10,0.14
2013-10-9,61.2,48.8,39.9,50.2,44.0,38.8,98,85,56,30.11,29.92,6,1,6,0.00
2013-10-10,62.4,52.8,45.7,50.4,47.7,43.7,95,83,61,30.04,29.90,6,1,6,0.01
2013-10-11,57.2,51.8,48.4,52.9,49.6,46.8,97,93,80,30.11,30.03,3,0,3,0.08
2013-10-12,58.1,50.8,43.7,51.6,48.2,42.4,99,91,72,30.19,30.03,8,1,8,0.05
2013-10-13,57.6,48.4,41.0,49.8,45.3,40.3,99,90,69,30.34,30.18,7,1,7,0.00
2013-10-14,61.2,48.4,40.3,51.1,44.1,39.6,99,86,58,30.40,30.32,7,1,7,0.00
2013-10-15,61.9,49.8,41.0,52.3,46.3,39.9,99,88,66,30.36,30.14,6,1,6,0.00
2013-10-16,56.1,50.6,44.1,49.6,47.7,43.0,98,90,77,30.17,30.11,6,1,6,0.00
2013-10-17,58.3,50.8,44.6,50.2,47.4,43.3,96,88,74,30.25,30.17,8,1,8,0.00
2013-10-18,61.5,48.9,43.9,52.9,46.4,42.6,99,91,71,30.22,30.10,6,1,6,0.00
2013-10-19,51.8,47.4,42.1,48.7,46.0,40.8,99,95,87,30.17,30.11,4,1,4,0.00
2013-10-20,51.6,48.6,46.9,48.4,46.7,45.5,97,93,87,30.18,30.11,4,1,4,0.00
2013-10-21,52.9,49.2,46.8,49.3,47.3,45.7,97,93,85,30.14,30.06,5,1,5,0.00
2013-10-22,57.9,50.1,46.8,52.0,48.0,46.0,99,93,79,30.09,29.99,5,1,5,0.00
2013-10-23,59.7,49.4,45.0,52.3,47.2,43.9,99,93,77,30.02,29.93,6,1,6,0.00
2013-10-24,54.9,49.2,45.9,51.1,47.8,45.7,99,95,85,30.10,29.98,5,1,5,0.01
2013-10-25,54.1,49.5,44.6,49.8,47.5,43.9,98,93,83,30.29,30.09,7,1,7,0.00
2013-10-26,54.3,50.4,44.2,48.4,46.8,43.5,99,88,75,30.30,30.15,7,1,7,0.01
2013-10-27,56.7,49.9,43.5,50.5,46.2,41.9,96,87,70,30.17,29.86,14,1,14,0.09
2013-10-28,57.7,49.3,40.8,44.6,38.0,30.9,97,68,39,29.92,29.84,22,2,22,0.00
2013-10-29,59.4,44.6,34.5,43.3,37.6,32.9,96,79,47,30.00,29.91,8,1,8,0.00
2013-10-30,58.1,47.7,36.7,47.3,42.0,35.1,97,82,61,30.09,29.99,15,2,15,0.01
2013-10-31,56.7,52.4,50.2,51.1,48.1,43.5,93,85,74,30.23,30.06,17,3,17,0.00
2013-11-1,63.9,55.5,52.0,52.9,50.2,47.8,94,83,59,30.24,29.80,6,1,6,0.00
2013-11-2,53.6,50.3,43.0,51.8,46.8,38.8,98,88,69,29.85,29.44,36,6,36,2.01
2013-11-3,57.0,44.7,39.4,46.6,40.9,37.6,96,87,54,30.08,29.84,10,2,10,0.06
2013-11-4,52.7,43.9,36.0,45.7,38.8,35.2,99,84,54,30.16,30.02,5,1,5,0.06
2013-11-5,57.6,47.8,43.5,51.1,45.5,41.0,96,92,75,30.23,29.97,9,1,9,0.04
2013-11-6,53.6,48.4,43.7,48.4,45.3,42.6,97,89,74,30.29,29.99,4,1,5,0.12
2013-11-7,51.6,49.5,48.4,50.2,48.2,46.6,99,95,84,29.99,29.68,21,5,21,1.12
2013-11-8,59.4,50.3,43.7,48.4,44.9,41.7,95,82,63,30.13,29.93,11,3,11,0.00
2013-11-9,53.4,46.1,38.7,45.1,42.8,37.9,98,89,68,30.12,30.03,5,0,5,0.11
2013-11-10,50.7,47.2,44.4,46.6,44.8,42.4,98,92,82,30.12,30.05,7,1,7,0.04
2013-11-11,61.3,48.8,40.5,50.9,45.1,39.4,98,88,61,30.13,29.96,7,1,7,0.00
2013-11-12,59.4,52.3,44.8,55.2,49.8,42.8,98,91,83,30.32,29.99,15,2,15,0.21
2013-11-13,57.6,53.2,49.6,50.4,48.8,46.0,93,85,73,30.40,30.27,16,2,17,0.00
2013-11-14,51.8,47.4,42.4,49.1,45.8,41.7,99,94,86,30.27,30.02,6,0,6,0.22
2013-11-15,49.3,45.4,42.8,47.7,44.0,42.3,99,95,89,30.02,29.28,24,6,24,0.31
2013-11-16,50.9,44.8,39.2,44.4,40.1,36.7,99,84,68,29.73,29.30,14,4,14,0.18
2013-11-17,54.7,48.3,43.2,47.7,43.6,37.9,90,84,75,29.86,29.73,25,7,25,0.00
2013-11-18,51.8,50.0,47.3,51.3,48.7,44.6,99,95,88,29.86,29.51,16,4,16,0.78
2013-11-19,53.2,44.4,37.6,52.5,38.5,23.0,99,81,51,30.04,29.50,23,3,23,0.26
2013-11-20,44.2,36.2,28.9,31.8,27.3,21.7,90,72,43,30.48,30.03,10,2,10,0.01
2013-11-21,44.6,33.6,26.2,31.6,26.5,23.9,94,77,45,30.64,30.47,7,2,7,0.00
2013-11-22,48.2,35.2,27.0,31.8,27.9,24.6,93,77,42,30.62,30.41,9,1,9,0.00
2013-11-23,52.9,38.6,28.8,36.9,31.1,26.2,93,77,41,30.41,30.16,7,1,7,0.00
2013-11-24,53.1,39.2,30.4,43.0,35.6,29.3,98,87,67,30.22,30.13,5,1,6,0.00
2013-11-25,54.7,40.8,32.5,43.0,36.7,31.3,99,87,55,30.29,30.21,4,1,4,0.00
2013-11-26,53.1,43.8,34.5,43.9,39.5,33.3,98,86,56,30.24,30.05,4,1,4,0.00
2013-11-27,57.0,46.2,36.5,42.8,39.6,34.7,94,79,56,30.06,29.91,5,1,5,0.00
2013-11-28,49.3,39.6,34.0,45.0,38.2,32.9,99,95,85,30.14,29.99,3,1,3,0.01
2013-11-29,50.2,44.4,36.9,46.6,43.0,36.1,99,95,86,30.28,30.14,10,2,10,0.00
2013-11-30,51.1,48.8,44.8,47.8,45.4,42.8,96,88,80,30.30,30.05,20,5,20,0.08
2013-12-1,54.1,51.3,43.2,51.8,47.5,38.3,98,87,78,30.05,29.69,21,6,21,0.01
2013-12-2,47.5,40.4,35.6,38.3,35.1,32.5,95,82,60,30.02,29.76,12,3,12,0.11
2013-12-3,40.3,33.9,27.1,33.3,25.5,21.2,90,72,48,30.28,30.02,11,3,11,0.00
2013-12-4,40.3,29.3,23.9,29.1,24.2,21.9,95,82,57,30.32,30.26,6,1,6,0.00
2013-12-5,36.5,28.3,22.5,28.8,21.9,12.9,95,78,49,30.29,30.16,12,2,12,0.00
2013-12-6,34.2,27.7,23.0,13.6,9.6,6.1,54,46,33,30.20,30.10,13,4,13,0.00
2013-12-7,30.2,22.8,17.4,11.1,6.8,0.1,76,51,28,30.40,30.20,8,2,8,0.00
2013-12-8,34.7,25.2,16.3,21.0,16.6,10.9,85,71,46,30.55,30.38,6,2,6,0.00
2013-12-9,35.1,29.5,20.3,27.7,22.2,-19.8,88,75,62,30.56,30.45,4,1,4,0.00
2013-12-10,41.9,36.4,33.3,34.7,31.2,26.6,87,81,74,30.47,30.38,8,1,8,0.00
2013-12-11,42.1,33.8,28.0,36.9,31.1,26.6,96,90,77,30.39,30.13,4,1,4,0.00
2013-12-12,44.1,38.5,32.4,41.5,36.9,31.3,98,94,76,30.14,30.01,11,3,11,0.21
2013-12-13,47.5,45.3,41.9,47.3,45.0,41.4,99,98,97,30.38,30.08,8,2,8,0.01
2013-12-14,48.7,46.6,43.9,45.9,44.2,40.8,98,91,85,30.40,30.28,15,4,15,0.01
2013-12-15,51.1,48.7,46.8,48.7,46.9,43.7,98,93,85,30.41,30.27,13,3,13,0.13
2013-12-16,49.6,44.3,39.9,47.3,43.4,39.7,99,96,86,30.45,30.23,4,1,4,0.01
2013-12-17,45.0,42.3,40.3,42.4,41.1,39.9,99,95,90,30.23,30.06,11,2,11,0.00
2013-12-18,44.8,41.8,34.3,42.4,37.2,30.9,95,84,65,30.12,29.98,11,2,11,0.09
2013-12-19,41.5,34.2,27.9,33.6,27.6,24.3,94,78,55,30.32,30.11,8,1,8,0.00
2013-12-20,42.6,36.6,32.2,42.4,34.7,28.4,99,93,80,30.17,29.67,21,4,21,0.30
2013-12-21,45.0,42.6,39.7,44.8,42.2,39.6,99,98,95,30.12,29.80,5,1,5,0.15
2013-12-22,51.6,47.7,44.8,49.3,47.5,43.9,99,99,99,30.25,30.11,18,3,18,0.20
2013-12-23,56.3,48.7,40.8,50.2,45.8,38.8,99,90,75,30.48,30.08,25,6,25,0.05
2013-12-24,49.8,39.5,32.2,45.9,37.2,31.1,99,92,71,30.59,30.48,4,1,4,0.00
2013-12-25,42.1,35.1,31.8,39.0,33.8,30.9,99,95,81,30.51,30.36,5,1,5,0.00
2013-12-26,46.8,37.9,33.3,41.9,36.6,32.5,99,95,82,30.38,30.16,4,1,4,0.00
2013-12-27,45.5,40.9,35.8,44.4,40.4,35.6,99,98,92,30.33,30.08,15,2,15,0.05
2013-12-28,50.0,43.1,36.1,47.7,41.9,35.4,99,95,83,30.48,30.32,4,0,4,0.00
2013-12-29,46.0,40.8,37.8,43.3,39.6,37.4,99,95,85,30.44,30.27,5,1,5,0.01
2013-12-30,45.0,42.1,38.8,43.5,40.9,38.1,99,95,92,30.28,30.08,11,1,11,0.00
2013-12-31,47.1,43.8,38.1,45.5,42.1,37.6,99,94,87,30.34,30.14,8,2,8,0.01
2014-1-1,46.0,41.4,35.2,43.7,40.5,34.9,99,96,90,30.37,30.20,4,1,4,0.01
2014-1-2,50.4,45.4,42.1,45.3,43.3,41.0,99,93,73,30.21,29.84,21,3,21,0.32